Wetterstation Vordersexau
Wetterdaten: Woche 05.09.11 - 11.09.11 (KW36)
Datum Zeit Temp. A. Feuchte A. Luftdruck Regen Wind Richtung Taupunkt Windchill Windben
05.09.2011 00:00 18,4 C 80 % 1011,5 hPa 0,0 l/m 0,0 km/h SW 14,9 C 18,4 C 0,0 km/h
05.09.2011 01:00 17,9 C 80 % 1011,6 hPa 0,0 l/m 0,0 km/h NO 14,4 C 17,9 C 0,0 km/h
05.09.2011 02:00 17,9 C 80 % 1011,9 hPa 0,0 l/m 0,0 km/h NO 14,4 C 17,9 C 0,0 km/h
05.09.2011 03:00 17,8 C 80 % 1011,6 hPa 0,0 l/m 0,0 km/h W-NW 14,3 C 17,8 C 0,0 km/h
05.09.2011 04:00 17,4 C 81 % 1011,7 hPa 0,0 l/m 0,0 km/h SW 14,1 C 17,4 C 0,0 km/h
05.09.2011 05:00 17,3 C 80 % 1012,0 hPa 0,0 l/m 0,0 km/h NO 13,8 C 17,3 C 0,0 km/h
05.09.2011 06:00 14,5 C 83 % 1013,6 hPa 0,0 l/m 0,0 km/h SO 11,6 C 14,5 C 0,0 km/h
05.09.2011 07:00 14,4 C 82 % 1014,8 hPa 0,0 l/m 0,0 km/h SO 11,4 C 14,4 C 0,0 km/h
05.09.2011 08:00 15,2 C 82 % 1015,2 hPa 0,0 l/m 0,0 km/h O-SO 12,1 C 15,2 C 0,0 km/h
05.09.2011 09:00 16,8 C 84 % 1015,9 hPa 0,0 l/m 8,4 km/h S-SW 14,1 C 15,8 C 4,7 km/h
05.09.2011 10:00 21,0 C 74 % 1016,5 hPa 0,0 l/m 1,3 km/h N 16,2 C 21,0 C 0,7 km/h
05.09.2011 11:00 18,7 C 72 % 1016,8 hPa 0,0 l/m 0,0 km/h W-NW 13,5 C 18,7 C 0,0 km/h
05.09.2011 12:00 20,3 C 64 % 1017,3 hPa 0,0 l/m 17,5 km/h W 13,3 C 17,1 C 9,7 km/h
05.09.2011 13:00 22,1 C 58 % 1017,6 hPa 0,0 l/m 24,6 km/h SW 13,4 C 18,3 C 13,7 km/h
05.09.2011 14:00 22,5 C 56 % 1017,9 hPa 0,0 l/m 22,7 km/h W-SW 13,3 C 19,1 C 12,6 km/h
05.09.2011 15:00 22,1 C 52 % 1018,3 hPa 0,0 l/m 17,5 km/h W-SW 11,8 C 19,3 C 9,7 km/h
05.09.2011 16:00 24,4 C 49 % 1018,2 hPa 0,0 l/m 22,0 km/h SW 13,0 C 21,7 C 12,2 km/h
05.09.2011 17:00 22,9 C 49 % 1018,7 hPa 0,0 l/m 32,4 km/h W-NW 11,6 C 18,6 C 18,0 km/h
05.09.2011 18:00 18,1 C 66 % 1019,5 hPa 0,0 l/m 1,3 km/h W 11,6 C 18,1 C 0,7 km/h
05.09.2011 19:00 20,4 C 56 % 1020,1 hPa 0,0 l/m 3,9 km/h S-SW 11,3 C 20,4 C 2,2 km/h
05.09.2011 20:00 15,9 C 69 % 1021,2 hPa 0,0 l/m 0,0 km/h N-NO 10,2 C 15,9 C 0,0 km/h
05.09.2011 21:00 14,5 C 76 % 1021,9 hPa 0,0 l/m 0,0 km/h O-NO 10,3 C 14,5 C 0,0 km/h
05.09.2011 22:00 12,6 C 82 % 1022,3 hPa 0,0 l/m 0,0 km/h SO 9,6 C 12,6 C 0,0 km/h
05.09.2011 23:00 11,9 C 84 % 1022,8 hPa 0,0 l/m 0,0 km/h SO 9,3 C 11,9 C 0,0 km/h
06.09.2011 00:00 11,1 C 84 % 1022,9 hPa 0,0 l/m 0,0 km/h SO 8,5 C 11,1 C 0,0 km/h
06.09.2011 01:00 10,4 C 85 % 1023,3 hPa 0,0 l/m 0,0 km/h SO 8,0 C 10,4 C 0,0 km/h
06.09.2011 02:00 10,1 C 84 % 1023,6 hPa 0,0 l/m 0,0 km/h SO 7,5 C 10,1 C 0,0 km/h
06.09.2011 03:00 9,9 C 84 % 1023,5 hPa 0,0 l/m 0,0 km/h SO 7,3 C 9,9 C 0,0 km/h
06.09.2011 04:00 9,5 C 83 % 1023,3 hPa 0,0 l/m 5,2 km/h S-SO 6,8 C 9,5 C 2,9 km/h
06.09.2011 05:00 9,1 C 83 % 1022,9 hPa 0,0 l/m 0,0 km/h SO 6,4 C 9,1 C 0,0 km/h
06.09.2011 06:00 8,9 C 83 % 1022,7 hPa 0,0 l/m 0,0 km/h SO 6,2 C 8,9 C 0,0 km/h
06.09.2011 07:00 9,1 C 82 % 1022,2 hPa 0,0 l/m 0,0 km/h SO 6,2 C 9,1 C 0,0 km/h
06.09.2011 08:00 10,6 C 82 % 1022,3 hPa 0,0 l/m 0,0 km/h SO 7,7 C 10,6 C 0,0 km/h
06.09.2011 09:00 18,1 C 77 % 1022,3 hPa 0,0 l/m 0,0 km/h W 14,0 C 18,1 C 0,0 km/h
06.09.2011 10:00 21,9 C 54 % 1022,8 hPa 0,0 l/m 3,9 km/h W-SW 12,2 C 21,9 C 2,2 km/h
06.09.2011 11:00 23,8 C 47 % 1021,9 hPa 0,0 l/m 17,5 km/h W-SW 11,8 C 21,5 C 9,7 km/h
06.09.2011 12:00 23,4 C 44 % 1021,4 hPa 0,0 l/m 22,7 km/h SW 10,4 C 20,3 C 12,6 km/h
06.09.2011 13:00 22,9 C 45 % 1020,9 hPa 0,0 l/m 33,7 km/h W-SW 10,3 C 18,5 C 18,7 km/h
06.09.2011 14:00 24,3 C 45 % 1020,0 hPa 0,0 l/m 22,0 km/h S 11,6 C 21,5 C 12,2 km/h
06.09.2011 15:00 24,9 C 42 % 1019,6 hPa 0,0 l/m 29,8 km/h W-SW 11,1 C 21,6 C 16,6 km/h
06.09.2011 16:00 26,4 C 41 % 1018,7 hPa 0,0 l/m 8,4 km/h S-SW 12,1 C 26,0 C 4,7 km/h
06.09.2011 17:00 25,1 C 42 % 1018,1 hPa 0,0 l/m 10,4 km/h W-SW 11,3 C 24,2 C 5,8 km/h
06.09.2011 18:00 23,9 C 44 % 1017,6 hPa 0,0 l/m 21,4 km/h W-NW 10,9 C 21,1 C 11,9 km/h
06.09.2011 19:00 19,1 C 57 % 1017,5 hPa 0,0 l/m 0,0 km/h S-SO 10,4 C 19,1 C 0,0 km/h
06.09.2011 20:00 16,3 C 66 % 1017,4 hPa 0,0 l/m 0,0 km/h S-SO 9,9 C 16,3 C 0,0 km/h
06.09.2011 21:00 16,3 C 68 % 1017,6 hPa 0,0 l/m 6,5 km/h S 10,4 C 16,3 C 3,6 km/h
06.09.2011 22:00 17,5 C 65 % 1017,3 hPa 0,0 l/m 3,9 km/h W 10,8 C 17,5 C 2,2 km/h
06.09.2011 23:00 17,8 C 64 % 1016,8 hPa 0,0 l/m 11,7 km/h S-SW 10,9 C 15,6 C 6,5 km/h
07.09.2011 00:00 18,2 C 63 % 1016,3 hPa 0,0 l/m 21,4 km/h S 11,0 C 13,6 C 11,9 km/h
07.09.2011 01:00 18,2 C 61 % 1015,5 hPa 0,0 l/m 26,6 km/h S-SW 10,6 C 12,7 C 14,8 km/h
07.09.2011 02:00 17,8 C 59 % 1015,1 hPa 0,0 l/m 23,3 km/h W-SW 9,7 C 12,7 C 13,0 km/h
07.09.2011 03:00 18,1 C 62 % 1014,8 hPa 0,0 l/m 13,6 km/h W-SW 10,7 C 15,3 C 7,6 km/h
07.09.2011 04:00 17,6 C 65 % 1014,5 hPa 0,0 l/m 36,3 km/h W-SW 10,9 C 10,5 C 20,2 km/h
07.09.2011 05:00 16,9 C 67 % 1014,0 hPa 0,0 l/m 24,0 km/h W 10,7 C 11,4 C 13,3 km/h
07.09.2011 06:00 16,9 C 69 % 1014,8 hPa 0,0 l/m 24,6 km/h SW 11,2 C 11,3 C 13,7 km/h
07.09.2011 07:00 14,3 C 82 % 1015,2 hPa 0,0 l/m 21,4 km/h W-SW 11,3 C 8,5 C 11,9 km/h
07.09.2011 08:00 15,3 C 79 % 1015,4 hPa 0,0 l/m 23,3 km/h W 11,7 C 9,4 C 13,0 km/h
07.09.2011 09:00 15,9 C 79 % 1016,1 hPa 0,0 l/m 20,7 km/h W 12,3 C 10,7 C 11,5 km/h
07.09.2011 10:00 17,3 C 75 % 1015,8 hPa 0,0 l/m 35,0 km/h W-SW 12,8 C 10,3 C 19,4 km/h
07.09.2011 11:00 18,6 C 72 % 1015,8 hPa 0,0 l/m 36,3 km/h W-SW 13,4 C 12,0 C 20,2 km/h
07.09.2011 12:00 20,0 C 69 % 1015,4 hPa 0,0 l/m 22,7 km/h W-SW 14,1 C 15,7 C 12,6 km/h
07.09.2011 13:00 20,6 C 66 % 1015,2 hPa 0,0 l/m 35,0 km/h W-NW 14,0 C 15,0 C 19,4 km/h
07.09.2011 14:00 20,6 C 66 % 1015,6 hPa 0,0 l/m 13,6 km/h W-SW 14,0 C 18,3 C 7,6 km/h
07.09.2011 15:00 20,0 C 67 % 1015,2 hPa 0,0 l/m 29,8 km/h W 13,7 C 14,7 C 16,6 km/h
07.09.2011 16:00 19,3 C 70 % 1014,7 hPa 0,0 l/m 22,0 km/h N-NO 13,7 C 14,9 C 12,2 km/h
07.09.2011 17:00 18,1 C 77 % 1015,0 hPa 0,0 l/m 0,0 km/h W-SW 14,0 C 18,1 C 0,0 km/h
07.09.2011 18:00 18,3 C 75 % 1014,8 hPa 0,0 l/m 7,1 km/h W-NW 13,8 C 18,0 C 4,0 km/h
07.09.2011 19:00 17,9 C 76 % 1014,5 hPa 0,0 l/m 6,5 km/h NW 13,6 C 17,9 C 3,6 km/h
07.09.2011 20:00 17,8 C 78 % 1015,4 hPa 0,0 l/m 0,0 km/h N-NO 13,9 C 17,8 C 0,0 km/h
07.09.2011 21:00 16,6 C 78 % 1015,6 hPa 0,0 l/m 0,0 km/h N-NO 12,7 C 16,6 C 0,0 km/h
07.09.2011 22:00 15,9 C 78 % 1015,6 hPa 0,0 l/m 0,0 km/h SO 12,1 C 15,9 C 0,0 km/h
07.09.2011 23:00 15,4 C 79 % 1015,9 hPa 0,0 l/m 0,0 km/h S 11,8 C 15,4 C 0,0 km/h
08.09.2011 00:00 14,1 C 79 % 1015,9 hPa 0,0 l/m 0,0 km/h S 10,5 C 14,1 C 0,0 km/h
08.09.2011 01:00 12,7 C 83 % 1015,2 hPa 0,0 l/m 0,0 km/h O-NO 9,9 C 12,7 C 0,0 km/h
08.09.2011 02:00 12,4 C 84 % 1014,8 hPa 0,0 l/m 0,0 km/h NO 9,8 C 12,4 C 0,0 km/h
08.09.2011 03:00 12,0 C 84 % 1014,2 hPa 0,0 l/m 4,5 km/h O-SO 9,4 C 12,0 C 2,5 km/h
08.09.2011 04:00 11,9 C 84 % 1014,8 hPa 0,0 l/m 0,0 km/h N-NW 9,3 C 11,9 C 0,0 km/h
08.09.2011 05:00 12,8 C 84 % 1014,1 hPa 0,0 l/m 0,0 km/h W-SW 10,2 C 12,8 C 0,0 km/h
08.09.2011 06:00 14,8 C 77 % 1014,0 hPa 0,0 l/m 10,4 km/h S-SW 10,8 C 12,7 C 5,8 km/h
08.09.2011 07:00 14,9 C 76 % 1014,4 hPa 0,0 l/m 20,1 km/h S-SW 10,7 C 9,6 C 11,2 km/h
08.09.2011 08:00 15,3 C 76 % 1014,3 hPa 0,0 l/m 9,7 km/h S-SW 11,1 C 13,6 C 5,4 km/h
08.09.2011 09:00 16,1 C 74 % 1014,3 hPa 0,0 l/m 14,9 km/h SW 11,5 C 12,6 C 8,3 km/h
08.09.2011 10:00 18,1 C 71 % 1014,3 hPa 0,0 l/m 18,1 km/h W-SW 12,8 C 14,2 C 10,1 km/h
08.09.2011 11:00 19,6 C 68 % 1013,9 hPa 0,0 l/m 20,1 km/h SW 13,5 C 15,7 C 11,2 km/h
08.09.2011 12:00 20,5 C 64 % 1013,7 hPa 1,1 l/m 26,6 km/h W-SW 13,5 C 15,8 C 14,8 km/h
08.09.2011 13:00 21,1 C 56 % 1013,1 hPa 0,0 l/m 29,8 km/h S-SW 12,0 C 16,3 C 16,6 km/h
08.09.2011 14:00 23,3 C 52 % 1012,4 hPa 0,0 l/m 23,3 km/h W-NW 12,9 C 20,0 C 13,0 km/h
08.09.2011 15:00 23,1 C 50 % 1011,8 hPa 0,0 l/m 16,8 km/h W 12,1 C 20,7 C 9,4 km/h
08.09.2011 16:00 20,4 C 59 % 1012,0 hPa 0,0 l/m 19,4 km/h W 12,1 C 16,8 C 10,8 km/h
08.09.2011 17:00 19,6 C 58 % 1012,4 hPa 0,0 l/m 33,7 km/h W-SW 11,1 C 13,7 C 18,7 km/h
08.09.2011 18:00 17,8 C 60 % 1013,0 hPa 0,0 l/m 24,0 km/h S-SO 9,9 C 12,6 C 13,3 km/h
08.09.2011 19:00 17,3 C 66 % 1012,8 hPa 0,0 l/m 4,5 km/h S-SO 10,9 C 17,3 C 2,5 km/h
08.09.2011 20:00 17,4 C 69 % 1012,9 hPa 0,0 l/m 9,1 km/h W-SW 11,7 C 16,1 C 5,0 km/h
08.09.2011 21:00 18,3 C 68 % 1013,5 hPa 0,0 l/m 14,3 km/h W-SW 12,3 C 15,4 C 7,9 km/h
08.09.2011 22:00 18,6 C 68 % 1013,2 hPa 0,0 l/m 17,5 km/h SW 12,6 C 14,9 C 9,7 km/h
08.09.2011 23:00 18,7 C 68 % 1013,2 hPa 0,0 l/m 24,0 km/h W 12,7 C 13,8 C 13,3 km/h
09.09.2011 00:00 18,9 C 67 % 1012,7 hPa 0,0 l/m 23,3 km/h SW 12,6 C 14,2 C 13,0 km/h
09.09.2011 01:00 18,8 C 67 % 1013,1 hPa 0,0 l/m 22,7 km/h W 12,5 C 14,1 C 12,6 km/h
09.09.2011 02:00 18,4 C 74 % 1013,1 hPa 0,0 l/m 12,3 km/h W 13,7 C 16,1 C 6,8 km/h
09.09.2011 03:00 17,9 C 78 % 1013,0 hPa 0,0 l/m 5,8 km/h W-SW 14,0 C 17,9 C 3,2 km/h
09.09.2011 04:00 17,2 C 79 % 1012,6 hPa 0,0 l/m 0,0 km/h W-SW 13,5 C 17,2 C 0,0 km/h
09.09.2011 05:00 17,6 C 79 % 1012,6 hPa 0,0 l/m 0,0 km/h N-NO 13,9 C 17,6 C 0,0 km/h
09.09.2011 06:00 17,5 C 80 % 1012,7 hPa 0,0 l/m 0,0 km/h N 14,0 C 17,5 C 0,0 km/h
09.09.2011 07:00 17,4 C 81 % 1013,2 hPa 0,0 l/m 0,0 km/h S-SW 14,1 C 17,4 C 0,0 km/h
09.09.2011 08:00 18,5 C 82 % 1013,3 hPa 0,0 l/m 0,0 km/h S-SW 15,4 C 18,5 C 0,0 km/h
09.09.2011 09:00 20,3 C 79 % 1013,0 hPa 0,0 l/m 12,3 km/h W 16,5 C 18,3 C 6,8 km/h
09.09.2011 10:00 21,4 C 77 % 1013,4 hPa 0,0 l/m 13,6 km/h W-NW 17,2 C 19,3 C 7,6 km/h
09.09.2011 11:00 24,7 C 67 % 1013,4 hPa 0,0 l/m 21,4 km/h W-SW 18,1 C 22,1 C 11,9 km/h
09.09.2011 12:00 24,9 C 65 % 1013,4 hPa 0,0 l/m 29,8 km/h W-SW 17,9 C 21,6 C 16,6 km/h
09.09.2011 13:00 23,8 C 70 % 1013,1 hPa 0,0 l/m 20,7 km/h W-SW 18,0 C 21,0 C 11,5 km/h
09.09.2011 14:00 25,3 C 66 % 1012,8 hPa 0,0 l/m 24,0 km/h NO 18,5 C 22,7 C 13,3 km/h
09.09.2011 15:00 24,3 C 70 % 1012,6 hPa 0,0 l/m 0,0 km/h SO 18,5 C 24,3 C 0,0 km/h
09.09.2011 16:00 26,1 C 67 % 1012,1 hPa 0,0 l/m 0,0 km/h SO 19,5 C 26,1 C 0,0 km/h
09.09.2011 17:00 27,4 C 62 % 1012,1 hPa 0,0 l/m 0,0 km/h SO 19,5 C 27,4 C 0,0 km/h
09.09.2011 18:00 27,1 C 58 % 1012,0 hPa 0,0 l/m 0,0 km/h SO 18,1 C 27,1 C 0,0 km/h
09.09.2011 19:00 26,3 C 65 % 1011,7 hPa 0,0 l/m 0,0 km/h O-SO 19,2 C 26,3 C 0,0 km/h
09.09.2011 20:00 20,0 C 81 % 1011,9 hPa 0,0 l/m 0,0 km/h SO 16,6 C 20,0 C 0,0 km/h
09.09.2011 21:00 18,4 C 83 % 1012,3 hPa 0,0 l/m 0,0 km/h SO 15,5 C 18,4 C 0,0 km/h
09.09.2011 22:00 17,4 C 83 % 1012,3 hPa 0,0 l/m 0,0 km/h SO 14,5 C 17,4 C 0,0 km/h
09.09.2011 23:00 16,9 C 83 % 1012,1 hPa 0,0 l/m 5,2 km/h SO 14,0 C 16,9 C 2,9 km/h
10.09.2011 00:00 16,4 C 83 % 1012,2 hPa 0,0 l/m 0,0 km/h O-NO 13,5 C 16,4 C 0,0 km/h
10.09.2011 01:00 16,1 C 82 % 1012,1 hPa 0,0 l/m 0,0 km/h SO 13,0 C 16,1 C 0,0 km/h
10.09.2011 02:00 15,8 C 82 % 1011,7 hPa 0,0 l/m 0,0 km/h NO 12,7 C 15,8 C 0,0 km/h
10.09.2011 03:00 15,0 C 82 % 1011,2 hPa 0,0 l/m 1,3 km/h O-NO 12,0 C 15,0 C 0,7 km/h
10.09.2011 04:00 14,7 C 81 % 1011,5 hPa 0,0 l/m 0,0 km/h O 11,5 C 14,7 C 0,0 km/h
10.09.2011 05:00 14,3 C 80 % 1011,0 hPa 0,0 l/m 0,0 km/h O-NO 10,9 C 14,3 C 0,0 km/h
10.09.2011 06:00 13,8 C 79 % 1011,2 hPa 0,0 l/m 0,0 km/h O-NO 10,2 C 13,8 C 0,0 km/h
10.09.2011 07:00 13,6 C 79 % 1011,6 hPa 0,0 l/m 0,0 km/h O-NO 10,0 C 13,6 C 0,0 km/h
10.09.2011 08:00 15,3 C 78 % 1011,6 hPa 0,0 l/m 0,0 km/h NO 11,5 C 15,3 C 0,0 km/h
10.09.2011 09:00 23,8 C 81 % 1011,5 hPa 0,0 l/m 0,0 km/h S-SO 20,3 C 23,8 C 0,0 km/h
10.09.2011 10:00 27,6 C 63 % 1011,6 hPa 0,0 l/m 0,0 km/h O-NO 19,9 C 27,6 C 0,0 km/h
10.09.2011 11:00 31,4 C 52 % 1011,7 hPa 0,0 l/m 0,0 km/h W 20,3 C 31,4 C 0,0 km/h
10.09.2011 12:00 33,3 C 48 % 1010,9 hPa 0,0 l/m 0,0 km/h NW 20,8 C 33,3 C 0,0 km/h
10.09.2011 13:00 33,2 C 45 % 1010,2 hPa 0,0 l/m 0,0 km/h SW 19,6 C 33,2 C 0,0 km/h
10.09.2011 14:00 32,6 C 44 % 1010,0 hPa 0,0 l/m 24,6 km/h NW 18,7 C 32,5 C 13,7 km/h
10.09.2011 15:00 35,8 C 38 % 1009,5 hPa 0,0 l/m 3,9 km/h W-NW 19,2 C 35,8 C 2,2 km/h
10.09.2011 16:00 36,5 C 36 % 1009,2 hPa 0,0 l/m 12,3 km/h NW 19,0 C 36,5 C 6,8 km/h
10.09.2011 17:00 35,7 C 37 % 1008,9 hPa 0,0 l/m 3,2 km/h W-NW 18,7 C 35,7 C 1,8 km/h
10.09.2011 18:00 37,1 C 37 % 1008,9 hPa 0,0 l/m 0,0 km/h N-NO 19,9 C 37,1 C 0,0 km/h
10.09.2011 19:00 29,9 C 52 % 1009,1 hPa 0,0 l/m 0,0 km/h SO 19,0 C 29,9 C 0,0 km/h
10.09.2011 20:00 22,1 C 71 % 1010,0 hPa 0,0 l/m 0,0 km/h SO 16,6 C 22,1 C 0,0 km/h
10.09.2011 21:00 20,3 C 77 % 1010,4 hPa 0,0 l/m 0,0 km/h SO 16,1 C 20,3 C 0,0 km/h
10.09.2011 22:00 19,6 C 79 % 1010,3 hPa 0,0 l/m 0,0 km/h SO 15,9 C 19,6 C 0,0 km/h
10.09.2011 23:00 18,5 C 81 % 1010,3 hPa 0,0 l/m 0,0 km/h O-SO 15,2 C 18,5 C 0,0 km/h
11.09.2011 00:00 17,9 C 82 % 1010,6 hPa 0,0 l/m 0,0 km/h O-SO 14,8 C 17,9 C 0,0 km/h
11.09.2011 01:00 16,5 C 82 % 1011,2 hPa 0,0 l/m 0,0 km/h SO 13,4 C 16,5 C 0,0 km/h
11.09.2011 02:00 16,9 C 83 % 1011,3 hPa 0,0 l/m 0,0 km/h SO 14,0 C 16,9 C 0,0 km/h
11.09.2011 03:00 16,4 C 83 % 1011,5 hPa 0,0 l/m 0,0 km/h O-NO 13,5 C 16,4 C 0,0 km/h
11.09.2011 04:00 18,3 C 80 % 1011,4 hPa 0,0 l/m 0,0 km/h NO 14,8 C 18,3 C 0,0 km/h
11.09.2011 05:00 16,8 C 82 % 1011,1 hPa 0,0 l/m 0,0 km/h O-SO 13,7 C 16,8 C 0,0 km/h
11.09.2011 06:00 16,5 C 83 % 1011,5 hPa 0,0 l/m 0,0 km/h N-NO 13,6 C 16,5 C 0,0 km/h
11.09.2011 07:00 17,4 C 82 % 1011,6 hPa 0,0 l/m 0,0 km/h SW 14,3 C 17,4 C 0,0 km/h
11.09.2011 08:00 21,5 C 69 % 1011,7 hPa 0,0 l/m 14,9 km/h S 15,6 C 19,1 C 8,3 km/h
11.09.2011 09:00 26,4 C 52 % 1011,5 hPa 0,0 l/m 17,5 km/h W-SW 15,7 C 24,7 C 9,7 km/h
11.09.2011 10:00 29,1 C 46 % 1011,6 hPa 0,0 l/m 21,4 km/h W 16,3 C 27,9 C 11,9 km/h
11.09.2011 11:00 30,4 C 44 % 1011,1 hPa 0,0 l/m 9,1 km/h O-NO 16,7 C 30,2 C 5,0 km/h
11.09.2011 12:00 32,8 C 40 % 1010,2 hPa 0,0 l/m 0,0 km/h W 17,4 C 32,8 C 0,0 km/h
11.09.2011 13:00 31,6 C 39 % 1009,8 hPa 0,0 l/m 4,5 km/h W-NW 15,9 C 31,6 C 2,5 km/h
11.09.2011 14:00 30,7 C 41 % 1009,6 hPa 0,0 l/m 0,0 km/h W-NW 15,9 C 30,7 C 0,0 km/h
11.09.2011 15:00 31,1 C 42 % 1009,9 hPa 0,0 l/m 13,6 km/h W-SW 16,6 C 30,7 C 7,6 km/h
11.09.2011 16:00 23,6 C 60 % 1010,8 hPa 0,0 l/m 16,8 km/h W 15,4 C 21,3 C 9,4 km/h
11.09.2011 17:00 22,9 C 66 % 1010,4 hPa 0,0 l/m 11,7 km/h S 16,2 C 21,4 C 6,5 km/h
11.09.2011 18:00 21,8 C 72 % 1011,1 hPa 0,4 l/m 4,5 km/h W-SW 16,5 C 21,8 C 2,5 km/h
11.09.2011 19:00 20,9 C 73 % 1011,3 hPa 0,0 l/m 6,5 km/h W-NW 15,9 C 20,9 C 3,6 km/h
11.09.2011 20:00 20,1 C 73 % 1011,7 hPa 0,0 l/m 0,0 km/h S-SO 15,1 C 20,1 C 0,0 km/h
11.09.2011 21:00 17,8 C 81 % 1013,6 hPa 2,1 l/m 0,0 km/h S-SO 14,5 C 17,8 C 0,0 km/h
11.09.2011 22:00 17,1 C 82 % 1013,1 hPa 1,1 l/m 0,0 km/h S-SO 14,0 C 17,1 C 0,0 km/h
11.09.2011 23:00 16,5 C 83 % 1013,3 hPa 0,0 l/m 0,0 km/h S-SO 13,6 C 16,5 C 0,0 km/h
Min-Datum _ 06.09.11 10.09.11 10.09.11 - 05.09.11 - 06.09.11 07.09.11 05.09.11
_ Min-Zeit 06:30 16:30 17:30 - 00:30 - 06:30 07:30 00:30
Minimum _ 8,9 C 36 % 1008,9 hPa - 0,0 km/h - 6,2 C 8,5 C 0,0 km/h
Max-Datum _ 10.09.11 06.09.11 06.09.11 11.09.11 07.09.11 - 10.09.11 10.09.11 07.09.11
_ Max-Zeit 18:30 01:30 02:30 21:30 04:30 - 12:30 18:30 04:30
Maximum _ 37,1 C 85 % 1023,6 hPa 2,1 l/m 36,3 km/h
W-SW
- 20,8 C 37,1 C 20,2 km/h
W-SW
Durchschnitt _ 19,6 C 69 % 1014,4 hPa #4,6 l/m 8,9 km/h W-SW 13,3 C 18,2 C 4,9 km/h
www.sexauwetter.de